Time;durP1;ratioP1;P1;durP2;ratioP2;P2;SDS_P1;SDS_P2;PMS_P1;PMS_P2;Temp;Humidity;BMP_temperature;BMP_pressure;BME280_temperature;BME280_humidity;BME280_pressure;Samples;Min_cycle;Max_cycle;Signal;HPM_P1;HPM_P2
2020/12/14 00:00:29;;;;;;;;;;;;;;;-2.30;84.18;100417.89;1726830;81;20174;-78
2020/12/14 00:03:00;;;;;;;;;;;;;;;-2.32;84.27;100431.12;1738921;81;20188;-76
2020/12/14 00:05:27;;;;;;;;;;;;;;;-2.31;84.33;100425.61;1725830;81;20173;-77
2020/12/14 00:07:55;;;;;;;;;;;;;;;-2.31;84.32;100421.59;1714947;81;20271;-76
2020/12/14 00:10:23;;;;;;;;;;;;;;;-2.30;84.29;100430.48;1735717;81;20212;-77
2020/12/14 00:12:51;;;;;;;;;;;;;;;-2.32;84.30;100423.92;1719421;81;20242;-76
2020/12/14 00:15:19;;;;;;;;;;;;;;;-2.32;84.27;100433.30;1715496;81;20216;-77
2020/12/14 00:17:46;;;;;;;;;;;;;;;-2.30;84.30;100430.48;1735112;81;20280;-81
2020/12/14 00:20:14;;;;;;;;;;;;;;;-2.26;84.31;100428.65;1719785;81;20256;-80
2020/12/14 00:22:42;;;;;;;;;;;;;;;-2.26;84.25;100426.47;1726556;81;20236;-77
2020/12/14 00:25:10;;;;;;;;;;;;;;;-2.26;84.11;100429.14;1719029;81;20228;-77
2020/12/14 00:27:38;;;;;;;;;;;;;;;-2.26;84.14;100429.14;1725375;81;20188;-76
2020/12/14 00:30:06;;;;;;;;;;;;;;;-2.26;84.13;100420.61;1710937;81;20263;-80
2020/12/14 00:32:33;;;;;;;;;;;;;;;-2.25;84.13;100424.13;1713433;81;20208;-80
2020/12/14 00:35:01;;;;;;;;;;;;;;;-2.22;84.15;100423.78;1720022;81;20266;-80
2020/12/14 00:37:29;;;;;;;;;;;;;;;-2.21;84.09;100423.64;1743534;81;20205;-81
2020/12/14 00:39:57;;;;;;;;;;;;;;;-2.20;84.08;100436.02;1706276;83;20240;-80
2020/12/14 00:42:25;;;;;;;;;;;;;;;-2.20;83.92;100432.53;1734750;82;20507;-79
2020/12/14 00:44:59;;;;;;;;;;;;;;;-2.25;83.86;100428.97;1751828;81;20579;-79
2020/12/14 00:47:27;;;;;;;;;;;;;;;-2.24;83.98;100423.11;1716009;81;20220;-79
2020/12/14 00:49:57;;;;;;;;;;;;;;;-2.23;83.95;100426.14;1727915;81;21808;-83
2020/12/14 00:52:29;;;;;;;;;;;;;;;-2.24;83.90;100422.62;1720673;81;20207;-79
2020/12/14 00:55:06;;;;;;;;;;;;;;;-2.26;83.82;100422.44;1721327;81;20240;-79
2020/12/14 00:57:38;;;;;;;;;;;;;;;-2.27;84.03;100428.79;1717059;82;20514;-78
2020/12/14 01:00:06;;;;;;;;;;;;;;;-2.27;83.98;100418.91;1723737;82;20475;-77
2020/12/14 01:02:34;;;;;;;;;;;;;;;-2.27;84.00;100430.98;1719820;81;20198;-77
2020/12/14 01:05:02;;;;;;;;;;;;;;;-2.27;84.02;100428.30;1733838;82;20198;-78
2020/12/14 01:07:29;;;;;;;;;;;;;;;-2.26;83.94;100427.80;1711355;81;20216;-78
2020/12/14 01:09:57;;;;;;;;;;;;;;;-2.29;83.93;100425.44;1675353;85;20583;-76
2020/12/14 01:12:24;;;;;;;;;;;;;;;-2.29;83.99;100428.13;1692006;83;20483;-77
2020/12/14 01:14:52;;;;;;;;;;;;;;;-2.32;83.91;100427.95;1700584;84;20264;-79
2020/12/14 01:17:20;;;;;;;;;;;;;;;-2.31;84.03;100432.81;1687549;83;20223;-77
2020/12/14 01:19:47;;;;;;;;;;;;;;;-2.33;84.04;100437.01;1674232;86;20327;-77
2020/12/14 01:22:15;;;;;;;;;;;;;;;-2.31;84.08;100432.31;1679575;83;20186;-76
2020/12/14 01:24:43;;;;;;;;;;;;;;;-2.30;84.13;100429.95;1672744;84;20249;-76
2020/12/14 01:27:10;;;;;;;;;;;;;;;-2.29;83.98;100432.98;1700007;83;20301;-77
2020/12/14 01:29:40;;;;;;;;;;;;;;;-2.28;83.97;100423.95;1685337;84;20203;-75
2020/12/14 01:32:07;;;;;;;;;;;;;;;-2.28;83.92;100431.16;1700655;84;20507;-77
2020/12/14 01:34:35;;;;;;;;;;;;;;;-2.27;83.98;100428.30;1674410;86;20224;-78
2020/12/14 01:37:03;;;;;;;;;;;;;;;-2.26;83.92;100431.33;1674593;85;20187;-77
2020/12/14 01:39:30;;;;;;;;;;;;;;;-2.25;83.92;100416.09;1675239;83;20502;-78
2020/12/14 01:41:58;;;;;;;;;;;;;;;-2.25;83.73;100420.92;1674701;86;20554;-78
2020/12/14 01:44:25;;;;;;;;;;;;;;;-2.26;83.83;100416.59;1675155;83;20561;-78
2020/12/14 01:46:53;;;;;;;;;;;;;;;-2.31;83.77;100401.48;1674032;86;20192;-78
2020/12/14 01:49:21;;;;;;;;;;;;;;;-2.30;83.87;100401.81;1709380;83;20211;-77
2020/12/14 01:51:49;;;;;;;;;;;;;;;-2.31;83.79;100404.17;1731591;83;20191;-81
2020/12/14 01:54:30;;;;;;;;;;;;;;;-2.29;83.84;100399.48;1688525;83;20622;-81
2020/12/14 01:56:58;;;;;;;;;;;;;;;-2.31;83.73;100396.13;1689609;84;20174;-77
2020/12/14 01:59:25;;;;;;;;;;;;;;;-2.32;83.86;100392.25;1685579;83;20219;-82
2020/12/14 02:01:53;;;;;;;;;;;;;;;-2.34;83.87;100389.75;1674168;86;20266;-78
2020/12/14 02:04:21;;;;;;;;;;;;;;;-2.34;83.84;100392.42;1679558;83;20205;-80
2020/12/14 02:06:49;;;;;;;;;;;;;;;-2.36;83.85;100384.21;1720598;83;20194;-78
2020/12/14 02:09:16;;;;;;;;;;;;;;;-2.36;84.00;100386.39;1677905;83;20519;-81
2020/12/14 02:11:44;;;;;;;;;;;;;;;-2.37;83.87;100383.36;1678773;85;20198;-81
2020/12/14 02:14:12;;;;;;;;;;;;;;;-2.39;83.80;100378.67;1677695;84;20190;-78
2020/12/14 02:16:40;;;;;;;;;;;;;;;-2.38;83.81;100369.64;1670954;83;20235;-76
2020/12/14 02:19:08;;;;;;;;;;;;;;;-2.41;83.79;100370.45;1674719;84;20530;-86
2020/12/14 02:21:35;;;;;;;;;;;;;;;-2.42;83.82;100377.66;1672897;83;20205;-77
2020/12/14 02:24:12;;;;;;;;;;;;;;;-2.41;83.78;100374.48;1642923;83;20188;-84
2020/12/14 02:26:40;;;;;;;;;;;;;;;-2.43;83.71;100374.66;1669393;83;20216;-78
2020/12/14 02:29:07;;;;;;;;;;;;;;;-2.44;83.78;100381.00;1670919;85;20196;-77
2020/12/14 02:31:34;;;;;;;;;;;;;;;-2.42;83.71;100388.87;1714761;81;20247;-86
2020/12/14 02:34:02;;;;;;;;;;;;;;;-2.43;83.71;100382.70;1711251;84;20188;-86
2020/12/14 02:36:30;;;;;;;;;;;;;;;-2.47;83.63;100388.02;1710506;81;20555;-78
2020/12/14 02:38:57;;;;;;;;;;;;;;;-2.46;83.81;100383.02;1710935;84;20187;-84
2020/12/14 02:41:25;;;;;;;;;;;;;;;-2.44;83.76;100391.72;1710556;81;20211;-81
2020/12/14 02:43:54;;;;;;;;;;;;;;;-2.42;83.73;100388.87;1715804;82;20209;-77
2020/12/14 02:46:22;;;;;;;;;;;;;;;-2.40;83.64;100386.36;1710503;81;20220;-78
2020/12/14 02:48:49;;;;;;;;;;;;;;;-2.38;83.50;100374.16;1710973;84;20291;-77
2020/12/14 02:51:18;;;;;;;;;;;;;;;-2.38;83.38;100376.84;1711039;83;20484;-83
2020/12/14 02:53:47;;;;;;;;;;;;;;;-2.38;83.39;100365.63;1725777;81;20191;-83
2020/12/14 02:56:16;;;;;;;;;;;;;;;-2.36;83.42;100373.48;1723629;83;20185;-77
2020/12/14 02:58:44;;;;;;;;;;;;;;;-2.34;83.43;100364.78;1725706;81;20183;-83
2020/12/14 03:01:12;;;;;;;;;;;;;;;-2.33;83.22;100360.61;1719505;83;20192;-82
2020/12/14 03:03:40;;;;;;;;;;;;;;;-2.33;83.08;100361.95;1729899;81;20232;-77
2020/12/14 03:06:07;;;;;;;;;;;;;;;-2.34;82.94;100354.90;1740296;82;20520;-86
2020/12/14 03:08:35;;;;;;;;;;;;;;;-2.35;82.98;100357.23;1724583;81;20176;-85
2020/12/14 03:11:02;;;;;;;;;;;;;;;-2.33;83.06;100359.27;1715868;83;20201;-76
2020/12/14 03:13:30;;;;;;;;;;;;;;;-2.30;83.05;100348.20;1722322;81;20220;-79
2020/12/14 03:15:57;;;;;;;;;;;;;;;-2.29;83.05;100346.36;1710885;83;20497;-79
2020/12/14 03:18:25;;;;;;;;;;;;;;;-2.26;83.06;100357.61;1710522;81;20506;-79
2020/12/14 03:20:52;;;;;;;;;;;;;;;-2.24;82.98;100359.62;1711338;83;20205;-77
2020/12/14 03:23:20;;;;;;;;;;;;;;;-2.23;83.12;100365.33;1728949;81;20434;-78
2020/12/14 03:25:48;;;;;;;;;;;;;;;-2.22;83.12;100366.98;1711012;84;20215;-80
2020/12/14 03:28:16;;;;;;;;;;;;;;;-2.21;82.97;100366.00;1699905;82;20193;-84
2020/12/14 03:30:43;;;;;;;;;;;;;;;-2.19;83.08;100365.33;1709956;81;20243;-82
2020/12/14 03:33:11;;;;;;;;;;;;;;;-2.19;83.07;100369.34;1711159;84;20188;-78
2020/12/14 03:35:39;;;;;;;;;;;;;;;-2.16;83.08;100356.96;1697853;83;20524;-77
2020/12/14 03:38:06;;;;;;;;;;;;;;;-2.15;82.82;100353.25;1686504;84;20220;-78
2020/12/14 03:40:34;;;;;;;;;;;;;;;-2.16;82.91;100352.94;1679862;83;20212;-78
2020/12/14 03:43:01;;;;;;;;;;;;;;;-2.17;82.94;100353.09;1679483;84;20196;-80
2020/12/14 03:45:28;;;;;;;;;;;;;;;-2.19;82.93;100358.63;1680005;83;20520;-80
2020/12/14 03:47:56;;;;;;;;;;;;;;;-2.20;83.01;100358.27;1679358;83;20240;-81
2020/12/14 03:50:24;;;;;;;;;;;;;;;-2.23;82.83;100353.27;1679987;83;20877;-80
2020/12/14 03:52:52;;;;;;;;;;;;;;;-2.26;82.83;100352.74;1682968;83;20708;-77
2020/12/14 03:55:20;;;;;;;;;;;;;;;-2.31;82.88;100358.60;1686570;83;20220;-82
2020/12/14 03:57:49;;;;;;;;;;;;;;;-2.31;82.90;100361.78;1689858;83;20194;-77
2020/12/14 04:00:17;;;;;;;;;;;;;;;-2.32;82.89;100365.45;1720556;82;20416;-76
2020/12/14 04:02:44;;;;;;;;;;;;;;;-2.34;82.90;100361.60;1735317;82;20256;-81
2020/12/14 04:05:12;;;;;;;;;;;;;;;-2.36;82.81;100370.31;1710890;84;20200;-81
2020/12/14 04:07:39;;;;;;;;;;;;;;;-2.38;83.01;100368.30;1711803;81;20232;-80
2020/12/14 04:10:07;;;;;;;;;;;;;;;-2.37;82.95;100365.94;1710753;84;20200;-78
2020/12/14 04:12:35;;;;;;;;;;;;;;;-2.37;82.80;100367.78;1727660;81;20202;-78
2020/12/14 04:15:02;;;;;;;;;;;;;;;-2.37;82.89;100361.92;1732469;82;20198;-78
2020/12/14 04:17:30;;;;;;;;;;;;;;;-2.34;82.93;100366.96;1722077;81;20548;-78
2020/12/14 04:19:58;;;;;;;;;;;;;;;-2.33;82.79;100365.98;1711198;83;20208;-78
2020/12/14 04:22:25;;;;;;;;;;;;;;;-2.32;82.75;100368.12;1724136;81;20293;-77
2020/12/14 04:24:53;;;;;;;;;;;;;;;-2.34;82.64;100361.60;1714604;83;20200;-78
2020/12/14 04:27:21;;;;;;;;;;;;;;;-2.37;82.64;100368.63;1711801;81;20204;-78
2020/12/14 04:29:48;;;;;;;;;;;;;;;-2.36;82.79;100360.94;1716738;83;20680;-79
2020/12/14 04:32:16;;;;;;;;;;;;;;;-2.36;82.62;100360.94;1711129;81;20204;-83
2020/12/14 04:34:44;;;;;;;;;;;;;;;-2.37;82.62;100373.14;1718016;82;20184;-81
2020/12/14 04:37:11;;;;;;;;;;;;;;;-2.38;82.56;100379.52;1714333;82;20180;-78
2020/12/14 04:39:39;;;;;;;;;;;;;;;-2.39;82.72;100384.03;1719119;81;20184;-81
2020/12/14 04:42:07;;;;;;;;;;;;;;;-2.37;82.54;100390.56;1711685;82;20255;-77
2020/12/14 04:44:34;;;;;;;;;;;;;;;-2.37;82.67;100394.09;1713467;81;20176;-77
2020/12/14 04:47:02;;;;;;;;;;;;;;;-2.34;82.61;100405.83;1711147;84;20522;-77
2020/12/14 04:49:30;;;;;;;;;;;;;;;-2.35;82.60;100409.50;1712577;81;20172;-78
2020/12/14 04:51:58;;;;;;;;;;;;;;;-2.34;82.49;100406.33;1711548;84;20207;-78
2020/12/14 04:54:25;;;;;;;;;;;;;;;-2.31;82.61;100415.39;1715528;81;20269;-77
2020/12/14 04:56:54;;;;;;;;;;;;;;;-2.30;82.41;100409.85;1727114;82;20217;-81
2020/12/14 04:59:24;;;;;;;;;;;;;;;-2.29;82.50;100407.52;1722047;81;20502;-77
2020/12/14 05:01:52;;;;;;;;;;;;;;;-2.26;82.55;100406.36;1727199;82;20455;-80
2020/12/14 05:04:20;;;;;;;;;;;;;;;-2.25;82.61;100395.45;1736304;81;20187;-77
2020/12/14 05:06:50;;;;;;;;;;;;;;;-2.24;82.42;100392.28;1711353;83;20653;-77
2020/12/14 05:09:20;;;;;;;;;;;;;;;-2.26;82.46;100391.12;1717921;81;20184;-81
2020/12/14 05:11:48;;;;;;;;;;;;;;;-2.28;82.49;100390.94;1697423;82;20187;-81
2020/12/14 05:14:20;;;;;;;;;;;;;;;-2.31;82.56;100392.11;1713443;82;20239;-81
2020/12/14 05:16:48;;;;;;;;;;;;;;;-2.30;82.52;100387.06;1727566;81;20475;-83
2020/12/14 05:19:24;;;;;;;;;;;;;;;-2.31;82.55;100382.73;1731732;82;20202;-82
2020/12/14 05:21:54;;;;;;;;;;;;;;;-2.31;82.51;100378.70;1716230;81;20192;-77
2020/12/14 05:24:27;;;;;;;;;;;;;;;-2.35;82.49;100380.02;1711180;84;20272;-78
2020/12/14 05:26:58;;;;;;;;;;;;;;;-2.36;82.53;100385.55;1711441;81;20513;-76
2020/12/14 05:29:31;;;;;;;;;;;;;;;-2.36;82.64;100379.70;1720324;83;20252;-79
2020/12/14 05:32:10;;;;;;;;;;;;;;;-2.38;82.66;100387.06;1711131;81;20216;-81
2020/12/14 05:34:38;;;;;;;;;;;;;;;-2.36;82.60;100381.03;1713324;84;20188;-85
2020/12/14 05:37:11;;;;;;;;;;;;;;;-2.37;82.78;100382.52;1711916;81;20217;-84
2020/12/14 05:39:40;;;;;;;;;;;;;;;-2.37;82.81;100390.56;1715874;83;20236;-76
2020/12/14 05:42:17;;;;;;;;;;;;;;;-2.36;82.79;100387.73;1723886;81;20194;-75
2020/12/14 05:44:47;;;;;;;;;;;;;;;-2.35;82.75;100388.05;1716392;83;20255;-76
2020/12/14 05:47:28;;;;;;;;;;;;;;;-2.34;82.76;100391.58;1710419;81;20188;-76
2020/12/14 05:49:59;;;;;;;;;;;;;;;-2.32;82.85;100396.27;1711325;83;20522;-77
2020/12/14 05:52:31;;;;;;;;;;;;;;;-2.34;82.79;100399.13;1710597;81;20188;-76
2020/12/14 05:54:59;;;;;;;;;;;;;;;-2.35;83.03;100396.09;1711045;84;20219;-77
2020/12/14 05:57:33;;;;;;;;;;;;;;;-2.35;83.05;100394.76;1723353;81;20291;-77
2020/12/14 06:00:11;;;;;;;;;;;;;;;-2.32;83.17;100390.42;1731448;82;20190;-77
2020/12/14 06:02:39;;;;;;;;;;;;;;;-2.28;83.29;100398.98;1730073;81;20248;-88
2020/12/14 06:05:12;;;;;;;;;;;;;;;-2.27;83.22;100402.83;1708846;84;20188;-78
2020/12/14 06:07:41;;;;;;;;;;;;;;;-2.25;83.12;100412.88;1658257;83;20536;-78
2020/12/14 06:10:14;;;;;;;;;;;;;;;-2.26;83.02;100415.25;1671716;86;20170;-81
2020/12/14 06:12:47;;;;;;;;;;;;;;;-2.22;83.12;100419.76;1688315;83;20570;-80
2020/12/14 06:15:16;;;;;;;;;;;;;;;-2.22;83.00;100417.08;1720819;83;20221;-78
2020/12/14 06:17:46;;;;;;;;;;;;;;;-2.21;83.06;100424.98;1682235;85;20224;-79
2020/12/14 06:20:22;;;;;;;;;;;;;;;-2.23;82.77;100412.25;1721928;83;20260;-80
2020/12/14 06:22:58;;;;;;;;;;;;;;;-2.25;82.83;100414.75;1705866;83;20281;-77
2020/12/14 06:25:26;;;;;;;;;;;;;;;-2.26;82.88;100416.59;1692184;83;20552;-78
2020/12/14 06:27:54;;;;;;;;;;;;;;;-2.25;82.62;100418.24;1674336;86;20575;-78
2020/12/14 06:30:35;;;;;;;;;;;;;;;-2.28;82.73;100407.88;1691659;83;20181;-82
2020/12/14 06:33:08;;;;;;;;;;;;;;;-2.26;82.92;100409.88;1702691;84;20193;-77
2020/12/14 06:35:49;;;;;;;;;;;;;;;-2.24;82.79;100406.53;1683284;83;20580;-76
2020/12/14 06:38:37;;;;;;;;;;;;;;;-2.26;82.78;100408.55;1715974;83;20252;-83
2020/12/14 06:41:12;;;;;;;;;;;;;;;-2.24;83.05;100407.03;1716868;81;20600;-78
2020/12/14 06:43:40;;;;;;;;;;;;;;;-2.24;82.95;100415.07;1717841;82;20285;-80
2020/12/14 06:46:08;;;;;;;;;;;;;;;-2.24;83.11;100407.88;1727052;81;20249;-80
2020/12/14 06:48:44;;;;;;;;;;;;;;;-2.21;83.18;100408.89;1726739;82;20247;-81
2020/12/14 06:51:15;;;;;;;;;;;;;;;-2.18;83.35;100411.26;1732917;81;20209;-86
2020/12/14 06:53:53;;;;;;;;;;;;;;;-2.12;83.53;100413.27;1736483;82;20270;-81
2020/12/14 06:56:34;;;;;;;;;;;;;;;-2.08;83.32;100414.64;1720450;81;20264;-77
2020/12/14 06:59:02;;;;;;;;;;;;;;;-2.05;83.37;100415.63;1721550;82;20193;-76
2020/12/14 07:01:40;;;;;;;;;;;;;;;-2.05;83.27;100410.26;1684686;83;20151;-76
2020/12/14 07:04:19;;;;;;;;;;;;;;;-2.02;83.50;100414.45;1681882;82;20567;-81
2020/12/14 07:06:45;;;;;;;;;;;;;;;-1.99;83.41;100415.47;1667496;83;20252;-81
2020/12/14 07:09:30;;;;;;;;;;;;;;;-1.99;83.39;100416.32;1676783;84;20189;-78
2020/12/14 07:12:14;;;;;;;;;;;;;;;-1.98;83.48;100415.33;1685689;83;20188;-79
2020/12/14 07:14:52;;;;;;;;;;;;;;;-1.99;83.56;100421.69;1685659;84;20198;-79
2020/12/14 07:17:24;;;;;;;;;;;;;;;-1.98;83.51;100407.78;1688418;83;20486;-78
2020/12/14 07:19:53;;;;;;;;;;;;;;;-1.95;83.55;100412.30;1717412;82;20211;-77
2020/12/14 07:22:22;;;;;;;;;;;;;;;-1.94;83.64;100408.62;1719676;81;20188;-78
2020/12/14 07:25:00;;;;;;;;;;;;;;;-1.89;83.66;100404.59;1716217;83;20754;-76
2020/12/14 07:27:28;;;;;;;;;;;;;;;-1.90;83.37;100408.30;1715356;81;20188;-77
2020/12/14 07:30:06;;;;;;;;;;;;;;;-1.92;83.54;100401.73;1716198;83;20188;-78
2020/12/14 07:32:33;;;;;;;;;;;;;;;-1.92;83.73;100403.92;1717894;81;20271;-78
2020/12/14 07:35:01;;;;;;;;;;;;;;;-1.90;83.78;100409.14;1715866;83;20180;-78
2020/12/14 07:37:29;;;;;;;;;;;;;;;-1.90;83.62;100413.16;1716276;81;20518;-78
2020/12/14 07:39:57;;;;;;;;;;;;;;;-1.88;83.87;100418.35;1679356;84;20258;-81
2020/12/14 07:42:31;;;;;;;;;;;;;;;-1.86;83.88;100416.34;1678916;85;20163;-80
2020/12/14 07:45:19;;;;;;;;;;;;;;;-1.83;83.82;100417.36;1679411;83;20180;-77
2020/12/14 07:47:48;;;;;;;;;;;;;;;-1.80;83.92;100425.08;1667235;85;20215;-82
2020/12/14 07:50:21;;;;;;;;;;;;;;;-1.77;83.92;100432.28;1721748;83;20203;-79
2020/12/14 07:52:50;;;;;;;;;;;;;;;-1.76;84.00;100423.73;1682449;84;20456;-78
2020/12/14 07:55:18;;;;;;;;;;;;;;;-1.74;83.90;100426.59;1665994;83;20174;-80
2020/12/14 07:57:47;;;;;;;;;;;;;;;-1.72;83.95;100413.84;1651379;84;20520;-83
2020/12/14 08:00:16;;;;;;;;;;;;;;;-1.68;84.11;100410.33;1681674;83;20195;-81
2020/12/14 08:02:45;;;;;;;;;;;;;;;-1.64;84.15;100411.66;1681659;84;20248;-75
2020/12/14 08:05:15;;;;;;;;;;;;;;;-1.62;84.11;100404.31;1714339;83;20230;-79
2020/12/14 08:08:03;;;;;;;;;;;;;;;-1.63;84.21;100410.67;1675369;83;20264;-82
2020/12/14 08:10:37;;;;;;;;;;;;;;;-1.61;84.30;100401.95;1683419;83;20276;-78
2020/12/14 08:13:10;;;;;;;;;;;;;;;-1.58;84.42;100404.30;1665384;84;20193;-78
2020/12/14 08:15:38;;;;;;;;;;;;;;;-1.56;84.43;100397.76;1688775;83;20661;-78
2020/12/14 08:18:09;;;;;;;;;;;;;;;-1.51;84.40;100398.59;1694846;84;20185;-78
2020/12/14 08:20:41;;;;;;;;;;;;;;;-1.50;84.29;100401.62;1674700;83;20190;-78
2020/12/14 08:23:19;;;;;;;;;;;;;;;-1.47;84.18;100408.01;1677251;84;20535;-80
2020/12/14 08:25:49;;;;;;;;;;;;;;;-1.47;84.04;100398.61;1691300;83;20173;-78
2020/12/14 08:28:30;;;;;;;;;;;;;;;-1.45;83.96;100414.04;1689110;84;20203;-77
2020/12/14 08:30:58;;;;;;;;;;;;;;;-1.45;84.12;100410.86;1684705;83;20578;-78
2020/12/14 08:33:26;;;;;;;;;;;;;;;-1.42;84.30;100400.30;1692178;84;20213;-78
2020/12/14 08:35:54;;;;;;;;;;;;;;;-1.38;84.25;100411.02;1676949;83;20188;-77
2020/12/14 08:38:23;;;;;;;;;;;;;;;-1.34;84.47;100409.16;1702997;83;20603;-78
2020/12/14 08:41:01;;;;;;;;;;;;;;;-1.31;84.60;100399.93;1710808;83;20292;-78
2020/12/14 08:43:29;;;;;;;;;;;;;;;-1.25;84.72;100403.79;1715274;81;20225;-77
2020/12/14 08:46:07;;;;;;;;;;;;;;;-1.23;84.57;100405.30;1728607;81;20248;-85
2020/12/14 08:48:56;;;;;;;;;;;;;;;-1.21;84.66;100397.91;1721262;81;20530;-78
2020/12/14 08:51:26;;;;;;;;;;;;;;;-1.18;84.69;100406.13;1723693;81;20180;-76
2020/12/14 08:53:55;;;;;;;;;;;;;;;-1.15;84.56;100409.33;1726314;81;20192;-77
2020/12/14 08:56:24;;;;;;;;;;;;;;;-1.14;84.46;100413.70;1727370;81;20566;-76
2020/12/14 08:58:56;;;;;;;;;;;;;;;-1.11;84.53;100412.52;1688130;82;20477;-77
2020/12/14 09:01:26;;;;;;;;;;;;;;;-1.10;84.19;100411.50;1734798;81;20196;-79
2020/12/14 09:03:58;;;;;;;;;;;;;;;-1.09;84.19;100410.00;1710702;81;20226;-81
2020/12/14 09:06:34;;;;;;;;;;;;;;;-1.09;84.02;100404.62;1724486;82;20489;-81
2020/12/14 09:09:07;;;;;;;;;;;;;;;-1.07;84.24;100402.61;1715804;81;20188;-80
2020/12/14 09:11:48;;;;;;;;;;;;;;;-1.07;84.04;100401.27;1711284;82;20180;-82
2020/12/14 09:14:25;;;;;;;;;;;;;;;-1.06;84.00;100411.51;1714783;81;20212;-83
2020/12/14 09:16:56;;;;;;;;;;;;;;;-1.06;84.16;100406.14;1674060;84;20280;-84
2020/12/14 09:19:26;;;;;;;;;;;;;;;-1.08;84.11;100411.66;1669900;83;20215;-82
2020/12/14 09:21:54;;;;;;;;;;;;;;;-1.05;84.07;100420.73;1684203;84;20516;-85
2020/12/14 09:24:26;;;;;;;;;;;;;;;-1.06;83.82;100413.66;1684329;84;20257;-81
2020/12/14 09:26:56;;;;;;;;;;;;;;;-1.05;83.88;100415.36;1691688;82;20174;-85
2020/12/14 09:29:24;;;;;;;;;;;;;;;-1.02;83.78;100417.70;1719383;81;20220;-81
2020/12/14 09:31:52;;;;;;;;;;;;;;;-1.02;83.87;100412.83;1715972;82;20225;-83
2020/12/14 09:34:20;;;;;;;;;;;;;;;-1.01;83.94;100417.20;1715565;81;20255;-79
2020/12/14 09:36:52;;;;;;;;;;;;;;;-1.01;83.81;100413.99;1719930;81;20223;-81
2020/12/14 09:39:23;;;;;;;;;;;;;;;-1.00;83.79;100407.63;1721825;81;20235;-83
2020/12/14 09:41:50;;;;;;;;;;;;;;;-0.99;83.62;100407.97;1723826;82;20237;-85
2020/12/14 09:44:19;;;;;;;;;;;;;;;-0.99;83.58;100402.59;1717055;81;20172;-82
2020/12/14 09:46:46;;;;;;;;;;;;;;;-0.99;83.65;100396.37;1718243;81;20496;-83
2020/12/14 09:49:14;;;;;;;;;;;;;;;-0.98;83.71;100400.23;1724039;81;20237;-84
2020/12/14 09:51:42;;;;;;;;;;;;;;;-0.96;83.62;100392.02;1723008;81;20158;-82
2020/12/14 09:54:10;;;;;;;;;;;;;;;-0.96;83.65;100388.80;1721281;81;20205;-80
2020/12/14 09:56:39;;;;;;;;;;;;;;;-0.97;83.59;100381.77;1721010;81;20208;-79
2020/12/14 09:59:07;;;;;;;;;;;;;;;-1.03;83.34;100377.07;1718389;81;20192;-80
2020/12/14 10:01:35;;;;;;;;;;;;;;;-1.04;83.56;100375.41;1715042;81;20249;-80
2020/12/14 10:04:03;;;;;;;;;;;;;;;-1.03;83.65;100374.88;1720587;81;20199;-78
2020/12/14 10:06:31;;;;;;;;;;;;;;;-1.03;83.65;100376.22;1692387;81;20233;-78
2020/12/14 10:08:59;;;;;;;;;;;;;;;-1.03;83.51;100375.73;1692146;81;20189;-78
2020/12/14 10:11:27;;;;;;;;;;;;;;;-1.03;83.51;100376.22;1724401;81;20252;-79
2020/12/14 10:13:55;;;;;;;;;;;;;;;-1.06;83.52;100368.53;1719286;81;20194;-80
2020/12/14 10:16:25;;;;;;;;;;;;;;;-1.09;83.76;100361.66;1717054;81;20248;-79
2020/12/14 10:18:56;;;;;;;;;;;;;;;-1.11;83.92;100363.65;1717518;81;20219;-77
2020/12/14 10:21:25;;;;;;;;;;;;;;;-1.08;84.07;100359.78;1717970;81;20200;-80
2020/12/14 10:23:58;;;;;;;;;;;;;;;-1.06;84.05;100357.79;1726352;81;20212;-77
2020/12/14 10:26:26;;;;;;;;;;;;;;;-1.06;83.96;100359.95;1727984;81;20186;-83
2020/12/14 10:28:55;;;;;;;;;;;;;;;-1.06;84.01;100364.50;1699226;81;20192;-90
2020/12/14 10:31:23;;;;;;;;;;;;;;;-1.07;84.10;100355.60;1728850;81;20201;-87
2020/12/14 10:33:51;;;;;;;;;;;;;;;-1.04;84.14;100353.08;1727698;81;20229;-80
2020/12/14 10:36:19;;;;;;;;;;;;;;;-1.04;84.17;100350.39;1719717;82;20203;-83
2020/12/14 10:38:46;;;;;;;;;;;;;;;-1.04;84.16;100353.08;1700185;81;20588;-82
2020/12/14 10:41:17;;;;;;;;;;;;;;;-1.02;84.21;100353.23;1717951;81;20181;-81
2020/12/14 10:43:45;;;;;;;;;;;;;;;-1.02;84.25;100349.21;1728480;81;20185;-83
2020/12/14 10:46:13;;;;;;;;;;;;;;;-1.00;84.32;100357.09;1716311;81;20335;-86
2020/12/14 10:48:42;;;;;;;;;;;;;;;-0.97;84.32;100362.13;1714909;81;20201;-81
2020/12/14 10:51:15;;;;;;;;;;;;;;;-0.98;84.41;100354.56;1717954;81;20594;-82
2020/12/14 10:53:48;;;;;;;;;;;;;;;-0.98;84.41;100354.56;1696211;82;20265;-83
2020/12/14 10:56:16;;;;;;;;;;;;;;;-0.96;84.53;100344.47;1720588;81;20237;-80
2020/12/14 10:58:44;;;;;;;;;;;;;;;-0.95;84.54;100339.94;1722809;81;20238;-82
2020/12/14 11:01:12;;;;;;;;;;;;;;;-0.94;84.68;100337.61;1721099;81;20185;-83
2020/12/14 11:03:40;;;;;;;;;;;;;;;-0.91;84.62;100335.92;1722743;81;20209;-86
2020/12/14 11:06:08;;;;;;;;;;;;;;;-0.91;84.70;100340.77;1715243;81;20172;-82
2020/12/14 11:08:35;;;;;;;;;;;;;;;-0.87;84.78;100336.73;1719255;81;20243;-79
2020/12/14 11:11:05;;;;;;;;;;;;;;;-0.83;84.79;100334.02;1721757;81;20178;-83
2020/12/14 11:13:33;;;;;;;;;;;;;;;-0.81;84.78;100338.72;1721724;81;20773;-78
2020/12/14 11:16:01;;;;;;;;;;;;;;;-0.79;84.84;100336.72;1718646;81;20181;-84
2020/12/14 11:18:30;;;;;;;;;;;;;;;-0.74;84.95;100337.53;1724712;81;20276;-77
2020/12/14 11:20:57;;;;;;;;;;;;;;;-0.74;84.82;100334.34;1721679;81;20212;-79
2020/12/14 11:23:25;;;;;;;;;;;;;;;-0.73;84.74;100333.81;1721398;81;20488;-82
2020/12/14 11:25:53;;;;;;;;;;;;;;;-0.72;84.81;100326.09;1714167;81;20203;-76
2020/12/14 11:28:21;;;;;;;;;;;;;;;-0.73;84.64;100338.69;1721297;81;20177;-78
2020/12/14 11:30:49;;;;;;;;;;;;;;;-0.77;84.62;100333.34;1743272;81;20245;-76
2020/12/14 11:33:17;;;;;;;;;;;;;;;-0.77;84.68;100330.66;1728536;81;20169;-83
2020/12/14 11:35:45;;;;;;;;;;;;;;;-0.80;84.52;100326.13;1726255;81;20526;-86
2020/12/14 11:38:13;;;;;;;;;;;;;;;-0.82;84.65;100323.62;1722777;81;20208;-77
2020/12/14 11:40:41;;;;;;;;;;;;;;;-0.80;84.80;100314.03;1737476;81;20269;-78
2020/12/14 11:43:08;;;;;;;;;;;;;;;-0.80;84.87;100320.25;1688136;83;20261;-84
2020/12/14 11:45:38;;;;;;;;;;;;;;;-0.80;84.86;100316.22;1715072;82;20603;-80
2020/12/14 11:48:06;;;;;;;;;;;;;;;-0.81;84.91;100318.56;1690448;82;20676;-80
2020/12/14 11:50:33;;;;;;;;;;;;;;;-0.80;84.85;100313.53;1722596;81;20236;-81
2020/12/14 11:53:01;;;;;;;;;;;;;;;-0.78;85.03;100314.19;1714368;81;20239;-78
2020/12/14 11:55:29;;;;;;;;;;;;;;;-0.75;85.03;100312.50;1717023;81;20220;-78
2020/12/14 11:57:56;;;;;;;;;;;;;;;-0.73;85.04;100302.91;1719950;81;20586;-77
2020/12/14 12:00:24;;;;;;;;;;;;;;;-0.74;84.91;100310.16;1748515;81;20538;-76
2020/12/14 12:02:52;;;;;;;;;;;;;;;-0.73;85.01;100310.47;1721393;81;20306;-80
2020/12/14 12:05:20;;;;;;;;;;;;;;;-0.71;85.04;100308.44;1692669;83;20696;-75
2020/12/14 12:07:48;;;;;;;;;;;;;;;-0.70;85.10;100311.47;1673053;83;20196;-84
2020/12/14 12:10:16;;;;;;;;;;;;;;;-0.70;85.08;100312.81;1674787;86;20268;-83
2020/12/14 12:12:44;;;;;;;;;;;;;;;-0.71;85.01;100308.44;1693819;83;20311;-85
2020/12/14 12:15:15;;;;;;;;;;;;;;;-0.73;85.10;100309.13;1715719;82;20216;-81
2020/12/14 12:17:43;;;;;;;;;;;;;;;-0.72;85.23;100304.59;1710074;81;20191;-81
2020/12/14 12:20:11;;;;;;;;;;;;;;;-0.73;85.22;100311.81;1729994;82;20516;-84
2020/12/14 12:22:39;;;;;;;;;;;;;;;-0.74;85.10;100310.66;1716678;83;20512;-79
2020/12/14 12:25:06;;;;;;;;;;;;;;;-0.73;85.26;100317.69;1710050;81;20205;-80
2020/12/14 12:27:34;;;;;;;;;;;;;;;-0.71;85.39;100310.31;1710470;83;20183;-80
2020/12/14 12:30:01;;;;;;;;;;;;;;;-0.71;85.21;100309.78;1710328;81;20197;-80
2020/12/14 12:32:29;;;;;;;;;;;;;;;-0.70;85.32;100316.84;1710343;81;20204;-82
2020/12/14 12:34:57;;;;;;;;;;;;;;;-0.70;85.24;100314.66;1699478;82;20590;-84
2020/12/14 12:37:25;;;;;;;;;;;;;;;-0.73;85.12;100317.19;1723389;82;20192;-78
2020/12/14 12:39:52;;;;;;;;;;;;;;;-0.76;85.18;100327.47;1710317;81;20321;-75
2020/12/14 12:42:20;;;;;;;;;;;;;;;-0.79;85.25;100324.63;1710615;83;20223;-77
2020/12/14 12:44:47;;;;;;;;;;;;;;;-0.79;85.32;100325.97;1710650;81;20192;-74
2020/12/14 12:47:16;;;;;;;;;;;;;;;-0.79;85.33;100328.66;1710874;83;20192;-76